Time;durP1;ratioP1;P1;durP2;ratioP2;P2;SDS_P1;SDS_P2;PMS_P1;PMS_P2;Temp;Humidity;BMP_temperature;BMP_pressure;BME280_temperature;BME280_humidity;BME280_pressure;Samples;Min_cycle;Max_cycle;Signal;HPM_P1;HPM_P2
2023/05/21 00:01:58;;;;;;;5.18;3.75;;;14.50;99.90;;;;;;5072530;28;20446;-69
2023/05/21 00:04:27;;;;;;;5.32;3.45;;;14.50;99.90;;;;;;5053340;28;20052;-67
2023/05/21 00:06:54;;;;;;;4.85;3.45;;;14.40;99.90;;;;;;5054821;28;20082;-68
2023/05/21 00:09:21;;;;;;;6.00;3.50;;;14.40;99.90;;;;;;5072338;28;20443;-69
2023/05/21 00:11:48;;;;;;;7.90;3.92;;;14.40;99.90;;;;;;5052890;28;20059;-69
2023/05/21 00:14:16;;;;;;;6.50;3.00;;;14.40;99.90;;;;;;5071908;28;20501;-68
2023/05/21 00:16:43;;;;;;;8.88;3.30;;;14.40;99.90;;;;;;5054983;28;20123;-68
2023/05/21 00:19:10;;;;;;;6.07;3.35;;;14.50;99.90;;;;;;5072742;28;20052;-69
2023/05/21 00:21:38;;;;;;;6.07;3.50;;;14.30;99.90;;;;;;5072163;28;20055;-67
2023/05/21 00:24:06;;;;;;;9.55;3.75;;;14.30;99.90;;;;;;5054641;28;20048;-68
2023/05/21 00:26:33;;;;;;;8.50;3.88;;;14.30;99.90;;;;;;5054327;28;20052;-68
2023/05/21 00:28:59;;;;;;;5.10;3.38;;;14.30;99.90;;;;;;5054169;28;20492;-69
2023/05/21 00:31:28;;;;;;;8.82;3.17;;;14.30;99.90;;;;;;5072601;28;20056;-67
2023/05/21 00:33:55;;;;;;;5.97;3.35;;;14.30;99.90;;;;;;5072540;28;20040;-67
2023/05/21 00:36:22;;;;;;;6.85;3.40;;;15.00;99.90;;;;;;5053929;28;20053;-67
2023/05/21 00:38:50;;;;;;;6.75;3.50;;;14.30;99.90;;;;;;5054668;28;20059;-68
2023/05/21 00:41:17;;;;;;;7.07;3.85;;;14.30;99.90;;;;;;5052300;28;20052;-68
2023/05/21 00:43:45;;;;;;;5.55;3.22;;;14.30;99.90;;;;;;5053861;28;20102;-66
2023/05/21 00:46:17;;;;;;;7.05;3.42;;;14.30;99.90;;;;;;5052917;28;20053;-67
2023/05/21 00:48:46;;;;;;;8.73;3.38;;;14.30;99.90;;;;;;5070752;28;20051;-68
2023/05/21 00:51:14;;;;;;;4.93;3.45;;;14.20;99.90;;;;;;5071770;28;20110;-68
2023/05/21 00:53:42;;;;;;;8.13;4.00;;;14.20;99.90;;;;;;5071971;28;20484;-68
2023/05/21 00:56:09;;;;;;;6.50;3.78;;;14.30;99.90;;;;;;5054259;28;20048;-68
2023/05/21 00:58:37;;;;;;;5.65;3.53;;;14.20;99.90;;;;;;5071781;28;20067;-69
2023/05/21 01:01:05;;;;;;;8.27;3.88;;;14.20;99.90;;;;;;5053973;28;20045;-69
2023/05/21 01:03:36;;;;;;;6.32;3.53;;;14.20;99.90;;;;;;5053507;28;20086;-69
2023/05/21 01:06:06;;;;;;;6.90;4.18;;;14.20;99.90;;;;;;5053884;28;20080;-69
2023/05/21 01:08:33;;;;;;;6.22;3.75;;;14.20;99.90;;;;;;5050667;28;20049;-68
2023/05/21 01:11:02;;;;;;;5.32;3.78;;;14.20;99.90;;;;;;5048231;28;20476;-69
2023/05/21 01:13:30;;;;;;;6.10;3.65;;;14.20;99.90;;;;;;5050842;28;20409;-68
2023/05/21 01:15:58;;;;;;;8.35;3.95;;;14.20;99.90;;;;;;5052302;28;20053;-69
2023/05/21 01:18:26;;;;;;;5.20;3.97;;;14.20;99.90;;;;;;5051235;28;20098;-68
2023/05/21 01:20:54;;;;;;;6.18;3.67;;;14.20;99.90;;;;;;5050882;28;20071;-67
2023/05/21 01:23:22;;;;;;;7.18;4.15;;;14.50;99.90;;;;;;5050860;28;20053;-67
2023/05/21 01:25:49;;;;;;;8.70;4.18;;;14.20;99.90;;;;;;5050139;28;20063;-68
2023/05/21 01:28:16;;;;;;;6.63;3.45;;;14.20;99.90;;;;;;5052034;28;20398;-68
2023/05/21 01:30:43;;;;;;;7.65;4.18;;;14.20;99.90;;;;;;5051780;28;20045;-68
2023/05/21 01:33:17;;;;;;;5.72;3.70;;;14.10;99.90;;;;;;5050072;28;20045;-68
2023/05/21 01:35:50;;;;;;;8.02;4.18;;;14.10;99.90;;;;;;5050833;28;20501;-67
2023/05/21 01:38:22;;;;;;;9.05;4.25;;;14.10;99.90;;;;;;5050932;28;20057;-67
2023/05/21 01:40:57;;;;;;;7.10;4.35;;;14.10;99.90;;;;;;5048013;28;20048;-68
2023/05/21 01:43:27;;;;;;;8.27;4.63;;;14.10;99.90;;;;;;5050558;28;20041;-67
2023/05/21 01:45:56;;;;;;;8.23;4.47;;;14.10;99.90;;;;;;5051069;28;20079;-68
2023/05/21 01:48:25;;;;;;;4.65;3.83;;;14.10;99.90;;;;;;5050717;28;20053;-68
2023/05/21 01:50:54;;;;;;;8.13;4.28;;;14.00;99.90;;;;;;5048838;28;20615;-67
2023/05/21 01:53:21;;;;;;;7.97;4.60;;;14.00;99.90;;;;;;5051038;28;20041;-68
2023/05/21 01:55:47;;;;;;;7.10;4.50;;;14.00;99.90;;;;;;5051808;28;20045;-68
2023/05/21 01:58:16;;;;;;;6.80;4.55;;;14.00;99.90;;;;;;5048132;28;20053;-67
2023/05/21 02:00:44;;;;;;;6.78;4.47;;;14.00;99.90;;;;;;5050910;28;20045;-68
2023/05/21 02:03:11;;;;;;;10.13;5.03;;;14.00;99.90;;;;;;5050672;28;20068;-68
2023/05/21 02:05:38;;;;;;;7.30;4.25;;;14.00;99.90;;;;;;5051506;28;20049;-68
2023/05/21 02:08:07;;;;;;;9.27;4.63;;;14.00;99.90;;;;;;5064142;28;20064;-69
2023/05/21 02:10:34;;;;;;;8.65;4.88;;;14.00;99.90;;;;;;5053485;28;20056;-68
2023/05/21 02:13:01;;;;;;;8.98;4.65;;;13.90;99.90;;;;;;5053562;28;20045;-68
2023/05/21 02:15:29;;;;;;;8.48;4.55;;;13.90;99.90;;;;;;5072662;28;20409;-67
2023/05/21 02:17:57;;;;;;;6.68;4.85;;;13.80;99.90;;;;;;5075067;28;20056;-68
2023/05/21 02:20:24;;;;;;;8.52;4.82;;;14.10;99.90;;;;;;5075055;28;20483;-67
2023/05/21 02:22:50;;;;;;;9.13;5.10;;;13.80;99.90;;;;;;5056235;28;20056;-68
2023/05/21 02:25:19;;;;;;;7.25;4.93;;;13.80;99.90;;;;;;5056939;28;20048;-67
2023/05/21 02:27:46;;;;;;;7.50;4.40;;;13.70;99.90;;;;;;5056846;28;20540;-69
2023/05/21 02:30:15;;;;;;;7.18;4.88;;;13.70;99.90;;;;;;5056495;28;20117;-68
2023/05/21 02:32:43;;;;;;;7.00;4.60;;;13.70;99.90;;;;;;5054921;28;20558;-68
2023/05/21 02:35:12;;;;;;;9.10;4.82;;;13.60;99.90;;;;;;5056104;28;20052;-67
2023/05/21 02:37:40;;;;;;;10.30;5.22;;;13.50;99.90;;;;;;5056864;28;20045;-68
2023/05/21 02:40:09;;;;;;;9.60;4.97;;;13.50;99.90;;;;;;5056741;28;20491;-68
2023/05/21 02:42:38;;;;;;;8.55;4.93;;;13.50;99.90;;;;;;5073919;28;20048;-68
2023/05/21 02:45:06;;;;;;;8.50;4.90;;;13.50;99.90;;;;;;5074691;28;20079;-67
2023/05/21 02:47:32;;;;;;;7.20;4.40;;;13.50;99.90;;;;;;5074379;28;20060;-67
2023/05/21 02:50:01;;;;;;;9.32;5.05;;;13.50;99.90;;;;;;5074059;28;20050;-67
2023/05/21 02:52:28;;;;;;;8.88;4.78;;;13.50;99.90;;;;;;5074142;28;20562;-68
2023/05/21 02:54:55;;;;;;;9.07;5.22;;;13.50;99.90;;;;;;5056195;28;20124;-68
2023/05/21 02:57:22;;;;;;;10.88;5.32;;;13.50;99.90;;;;;;5073629;28;20489;-68
2023/05/21 02:59:49;;;;;;;10.93;5.93;;;13.50;99.90;;;;;;5056243;28;20056;-69
2023/05/21 03:02:16;;;;;;;7.72;5.22;;;13.50;99.90;;;;;;5055974;28;20082;-68
2023/05/21 03:04:45;;;;;;;8.73;5.57;;;13.50;99.90;;;;;;5055803;28;20113;-68
2023/05/21 03:07:14;;;;;;;10.95;5.10;;;13.50;99.90;;;;;;5072098;28;20048;-67
2023/05/21 03:09:42;;;;;;;11.45;5.55;;;13.50;99.90;;;;;;5056092;28;20565;-67
2023/05/21 03:12:10;;;;;;;8.82;4.90;;;13.50;99.90;;;;;;5055494;28;20407;-68
2023/05/21 03:14:37;;;;;;;9.90;5.82;;;13.40;99.90;;;;;;5055772;28;20504;-69
2023/05/21 03:17:04;;;;;;;12.88;6.47;;;13.40;99.90;;;;;;5055395;28;20055;-68
2023/05/21 03:19:33;;;;;;;12.13;5.93;;;13.40;99.90;;;;;;5074099;28;20044;-68
2023/05/21 03:22:00;;;;;;;8.10;5.53;;;13.40;99.90;;;;;;5073574;28;20098;-68
2023/05/21 03:24:29;;;;;;;10.30;5.90;;;13.30;99.90;;;;;;5073349;28;20470;-68
2023/05/21 03:26:56;;;;;;;10.50;5.82;;;13.30;99.90;;;;;;5073694;28;20087;-67
2023/05/21 03:29:23;;;;;;;12.65;6.00;;;13.40;99.90;;;;;;5073825;28;20442;-68
2023/05/21 03:31:51;;;;;;;9.05;5.32;;;13.30;99.90;;;;;;5055049;28;20052;-67
2023/05/21 03:34:18;;;;;;;7.45;5.28;;;13.30;99.90;;;;;;5073245;28;20048;-67
2023/05/21 03:36:46;;;;;;;12.18;5.90;;;13.30;99.90;;;;;;5071468;28;20044;-67
2023/05/21 03:39:12;;;;;;;9.50;5.60;;;13.30;99.90;;;;;;5054622;28;20048;-67
2023/05/21 03:41:41;;;;;;;9.90;5.82;;;13.30;99.90;;;;;;5073086;28;20098;-71
2023/05/21 03:44:08;;;;;;;11.48;5.43;;;13.30;99.90;;;;;;5072959;28;20040;-71
2023/05/21 03:46:35;;;;;;;12.40;5.88;;;13.30;99.90;;;;;;5072537;28;20070;-72
2023/05/21 03:49:02;;;;;;;9.30;5.88;;;13.30;99.90;;;;;;5054812;28;20055;-70
2023/05/21 03:51:30;;;;;;;7.32;5.43;;;13.70;99.90;;;;;;5055385;28;20052;-70
2023/05/21 03:53:57;;;;;;;9.85;5.50;;;13.30;99.90;;;;;;5070542;28;20120;-67
2023/05/21 03:56:24;;;;;;;12.25;5.95;;;13.30;99.90;;;;;;5055132;28;20059;-67
2023/05/21 03:58:53;;;;;;;11.52;6.60;;;13.30;99.90;;;;;;5055154;28;20496;-67
2023/05/21 04:01:20;;;;;;;11.05;5.82;;;13.50;99.90;;;;;;5072385;28;20056;-67
2023/05/21 04:03:47;;;;;;;13.40;5.43;;;13.60;99.90;;;;;;5055230;28;20401;-67
2023/05/21 04:06:14;;;;;;;8.68;5.25;;;13.30;99.90;;;;;;5054954;28;20087;-67
2023/05/21 04:08:42;;;;;;;6.78;4.57;;;13.30;99.90;;;;;;5054390;28;20071;-66
2023/05/21 04:11:09;;;;;;;9.88;5.28;;;13.30;99.90;;;;;;5072901;28;20045;-67
2023/05/21 04:13:35;;;;;;;10.50;4.78;;;13.30;99.90;;;;;;5072215;28;20041;-67
2023/05/21 04:16:07;;;;;;;10.68;4.63;;;13.30;99.90;;;;;;5054621;28;20049;-67
2023/05/21 04:18:34;;;;;;;7.35;4.80;;;13.30;99.90;;;;;;5054639;28;20070;-67
2023/05/21 04:21:01;;;;;;;11.80;4.35;;;13.30;99.90;;;;;;5072384;28;20049;-67
2023/05/21 04:23:28;;;;;;;14.45;4.88;;;13.30;99.90;;;;;;5054781;28;20123;-67
2023/05/21 04:25:55;;;;;;;9.93;4.82;;;13.90;99.90;;;;;;5072889;28;20048;-67
2023/05/21 04:28:22;;;;;;;10.63;4.40;;;13.40;99.90;;;;;;5072090;28;20040;-65
2023/05/21 04:30:49;;;;;;;9.05;4.50;;;13.50;99.90;;;;;;5054773;28;20089;-67
2023/05/21 04:33:19;;;;;;;9.25;4.53;;;14.00;99.90;;;;;;5052625;28;20106;-67
2023/05/21 04:35:48;;;;;;;7.80;3.90;;;13.60;99.90;;;;;;5071987;28;20056;-66
2023/05/21 04:38:18;;;;;;;10.13;4.90;;;13.60;99.90;;;;;;5054239;28;20070;-70
2023/05/21 04:40:45;;;;;;;9.82;4.80;;;14.20;99.90;;;;;;5052930;28;20067;-70
2023/05/21 04:43:12;;;;;;;7.70;3.92;;;13.70;99.90;;;;;;5071501;28;20466;-73
2023/05/21 04:45:40;;;;;;;6.75;3.65;;;14.20;99.90;;;;;;5072632;28;20053;-68
2023/05/21 04:48:07;;;;;;;9.02;4.47;;;13.80;99.90;;;;;;5054293;28;20480;-68
2023/05/21 04:50:35;;;;;;;7.68;3.75;;;13.70;99.90;;;;;;5071933;28;20041;-68
2023/05/21 04:53:03;;;;;;;9.27;4.22;;;13.90;99.90;;;;;;5054391;28;20059;-69
2023/05/21 04:55:30;;;;;;;10.52;4.20;;;13.80;99.90;;;;;;5054066;28;20554;-69
2023/05/21 04:57:56;;;;;;;7.35;4.10;;;13.80;99.90;;;;;;5054014;28;20048;-68
2023/05/21 05:00:24;;;;;;;8.20;4.00;;;13.80;99.90;;;;;;5054350;28;20105;-68
2023/05/21 05:02:51;;;;;;;9.15;3.90;;;13.80;99.90;;;;;;5051485;28;20074;-69
2023/05/21 05:05:18;;;;;;;8.20;4.05;;;13.80;99.90;;;;;;5054154;28;21264;-69
2023/05/21 05:07:47;;;;;;;7.57;3.78;;;13.90;99.90;;;;;;5053953;28;20057;-69
2023/05/21 05:10:13;;;;;;;11.68;3.95;;;14.50;99.90;;;;;;5053618;28;20044;-68
2023/05/21 05:12:40;;;;;;;7.78;3.78;;;13.90;99.90;;;;;;5072259;28;20102;-67
2023/05/21 05:15:09;;;;;;;6.90;3.97;;;14.00;99.90;;;;;;5070077;28;20047;-67
2023/05/21 05:17:35;;;;;;;8.85;3.75;;;14.00;99.90;;;;;;5071438;28;20707;-67
2023/05/21 05:20:03;;;;;;;9.40;4.38;;;14.00;99.90;;;;;;5072020;28;20049;-68
2023/05/21 05:22:29;;;;;;;7.07;3.78;;;14.00;99.90;;;;;;5054025;28;20420;-68
2023/05/21 05:24:58;;;;;;;7.60;3.90;;;14.10;99.90;;;;;;5071299;28;20094;-68
2023/05/21 05:27:25;;;;;;;8.30;3.40;;;14.20;99.90;;;;;;5053828;28;20513;-68
2023/05/21 05:29:52;;;;;;;8.90;4.47;;;14.30;99.90;;;;;;5071988;28;20048;-69
2023/05/21 05:32:18;;;;;;;8.40;3.78;;;14.50;99.90;;;;;;5053220;28;20385;-68
2023/05/21 05:34:46;;;;;;;13.55;4.15;;;14.70;99.90;;;;;;5053974;28;20048;-68
2023/05/21 05:37:13;;;;;;;7.60;3.92;;;14.80;99.90;;;;;;5053400;28;20102;-68
2023/05/21 05:39:40;;;;;;;8.63;3.90;;;15.00;99.90;;;;;;5053267;28;20373;-68
2023/05/21 05:42:08;;;;;;;9.15;4.22;;;15.10;99.90;;;;;;5053805;28;20052;-68
2023/05/21 05:44:35;;;;;;;10.18;4.43;;;15.30;99.90;;;;;;5053759;28;20052;-68
2023/05/21 05:47:02;;;;;;;8.75;4.00;;;15.40;99.90;;;;;;5053397;28;20057;-68
2023/05/21 05:49:29;;;;;;;6.90;3.97;;;15.60;99.90;;;;;;5054067;28;20052;-68
2023/05/21 05:51:56;;;;;;;5.53;3.50;;;15.80;99.90;;;;;;5075141;28;20381;-68
2023/05/21 05:54:23;;;;;;;7.40;3.90;;;16.00;99.90;;;;;;5060328;28;20041;-68
2023/05/21 05:56:50;;;;;;;9.02;3.38;;;16.10;99.90;;;;;;5072522;28;20053;-68
2023/05/21 05:59:18;;;;;;;7.22;3.85;;;16.20;99.90;;;;;;5055494;28;20053;-68
2023/05/21 06:01:45;;;;;;;9.02;4.28;;;16.30;99.90;;;;;;5073804;28;20055;-68
2023/05/21 06:04:12;;;;;;;7.05;3.58;;;16.40;99.90;;;;;;5055761;28;20127;-68
2023/05/21 06:06:39;;;;;;;13.45;4.20;;;16.50;99.90;;;;;;5052070;28;20106;-68
2023/05/21 06:09:06;;;;;;;5.63;3.38;;;16.60;99.90;;;;;;5055871;28;20067;-69
2023/05/21 06:11:33;;;;;;;10.23;4.55;;;16.60;99.90;;;;;;5070643;28;20056;-68
2023/05/21 06:14:00;;;;;;;9.25;3.92;;;16.60;99.90;;;;;;5054504;28;20091;-68
2023/05/21 06:16:30;;;;;;;8.35;3.88;;;16.60;99.90;;;;;;5054957;28;20404;-69
2023/05/21 06:18:57;;;;;;;8.05;3.95;;;16.70;99.90;;;;;;5074006;28;20497;-68
2023/05/21 06:21:23;;;;;;;6.05;3.70;;;16.80;99.90;;;;;;5054666;28;20055;-68
2023/05/21 06:23:50;;;;;;;8.18;3.50;;;16.80;99.90;;;;;;5056479;28;20055;-67
2023/05/21 06:26:18;;;;;;;8.20;3.08;;;16.80;99.90;;;;;;5053183;28;20052;-67
2023/05/21 06:28:45;;;;;;;7.10;3.83;;;16.90;99.90;;;;;;5055859;28;20052;-67
2023/05/21 06:31:12;;;;;;;9.73;3.63;;;17.00;99.90;;;;;;5054710;28;20113;-68
2023/05/21 06:33:40;;;;;;;7.53;3.42;;;17.10;99.90;;;;;;5056193;28;20066;-68
2023/05/21 06:36:08;;;;;;;10.52;3.53;;;17.20;99.90;;;;;;5050923;28;20045;-68
2023/05/21 06:38:35;;;;;;;7.72;3.25;;;17.40;99.90;;;;;;5055480;28;20048;-69
2023/05/21 06:41:02;;;;;;;6.00;3.38;;;17.20;99.90;;;;;;5072794;28;20063;-69
2023/05/21 06:43:29;;;;;;;6.90;3.55;;;17.30;99.90;;;;;;5072158;28;20057;-68
2023/05/21 06:45:56;;;;;;;7.93;3.78;;;17.40;99.90;;;;;;5053936;28;20090;-69
2023/05/21 06:48:23;;;;;;;7.53;3.30;;;17.60;99.90;;;;;;5071519;28;20052;-69
2023/05/21 06:50:51;;;;;;;8.23;3.35;;;18.20;99.90;;;;;;5056042;28;20055;-69
2023/05/21 06:53:19;;;;;;;10.52;3.80;;;18.30;99.90;;;;;;5072373;28;20045;-68
2023/05/21 06:55:46;;;;;;;9.55;3.72;;;18.40;99.90;;;;;;5055208;28;20110;-68
2023/05/21 06:58:13;;;;;;;6.05;3.45;;;18.40;99.90;;;;;;5072245;28;20078;-68
2023/05/21 07:00:40;;;;;;;6.93;3.30;;;18.70;99.90;;;;;;5055275;28;20048;-67
2023/05/21 07:03:07;;;;;;;8.60;3.42;;;18.90;99.90;;;;;;5054467;28;20105;-68
2023/05/21 07:05:34;;;;;;;7.32;3.58;;;18.80;99.90;;;;;;5055729;28;20052;-68
2023/05/21 07:08:02;;;;;;;8.05;3.45;;;18.80;99.90;;;;;;5051324;28;20056;-69
2023/05/21 07:10:29;;;;;;;10.68;3.80;;;18.90;99.90;;;;;;5072622;28;20408;-68
2023/05/21 07:12:56;;;;;;;7.22;3.28;;;19.10;99.90;;;;;;5051722;28;20094;-68
2023/05/21 07:15:23;;;;;;;6.47;3.47;;;19.20;99.90;;;;;;5054844;28;20048;-69
2023/05/21 07:17:50;;;;;;;6.25;2.97;;;19.20;99.90;;;;;;5069990;28;20507;-68
2023/05/21 07:20:17;;;;;;;7.57;3.25;;;19.30;99.90;;;;;;5071345;28;20048;-69
2023/05/21 07:22:44;;;;;;;9.63;3.60;;;19.20;99.90;;;;;;5069710;28;20497;-69
2023/05/21 07:25:12;;;;;;;12.77;3.75;;;19.10;99.90;;;;;;5070891;28;20044;-68
2023/05/21 07:27:39;;;;;;;6.93;3.45;;;19.00;99.90;;;;;;5053989;28;20071;-68
2023/05/21 07:30:09;;;;;;;6.20;3.03;;;18.90;99.90;;;;;;5051717;28;20109;-68
2023/05/21 07:32:36;;;;;;;4.85;2.95;;;18.90;99.90;;;;;;5070414;28;20044;-68
2023/05/21 07:35:03;;;;;;;6.55;3.22;;;18.90;99.90;;;;;;5052448;28;20052;-68
2023/05/21 07:37:30;;;;;;;7.32;3.42;;;18.90;99.90;;;;;;5054405;28;20519;-69
2023/05/21 07:39:58;;;;;;;4.25;2.63;;;18.90;99.90;;;;;;5053376;28;20055;-69
2023/05/21 07:42:26;;;;;;;5.57;2.80;;;19.10;99.90;;;;;;5071805;28;20094;-70
2023/05/21 07:44:53;;;;;;;7.18;3.58;;;19.00;99.90;;;;;;5070832;28;20067;-68
2023/05/21 07:47:22;;;;;;;5.57;2.78;;;19.00;99.90;;;;;;5053066;28;20052;-68
2023/05/21 07:49:49;;;;;;;6.75;2.90;;;19.00;99.90;;;;;;5052695;28;20080;-68
2023/05/21 07:52:16;;;;;;;7.38;3.15;;;19.20;99.90;;;;;;5072009;28;20102;-68
2023/05/21 07:54:43;;;;;;;7.28;3.25;;;19.30;99.90;;;;;;5052441;28;20109;-68
2023/05/21 07:57:10;;;;;;;5.90;2.88;;;19.60;99.90;;;;;;5054464;28;20443;-68
2023/05/21 07:59:38;;;;;;;7.35;3.05;;;19.90;99.90;;;;;;5051403;28;20044;-69
2023/05/21 08:02:05;;;;;;;10.73;3.47;;;19.70;99.90;;;;;;5054217;28;20473;-69
2023/05/21 08:04:32;;;;;;;10.38;3.13;;;19.80;99.90;;;;;;5051511;28;20059;-68
2023/05/21 08:06:59;;;;;;;6.95;3.50;;;19.80;99.90;;;;;;5071294;28;20056;-68
2023/05/21 08:09:26;;;;;;;8.57;2.67;;;20.00;99.90;;;;;;5052658;28;20056;-69
2023/05/21 08:11:53;;;;;;;5.30;2.70;;;20.10;99.90;;;;;;5069601;28;20488;-72
2023/05/21 08:14:20;;;;;;;10.15;3.00;;;20.20;99.90;;;;;;5049871;28;20049;-68
2023/05/21 08:16:48;;;;;;;6.80;2.70;;;20.30;99.90;;;;;;5048711;28;20131;-69
2023/05/21 08:19:15;;;;;;;5.70;2.85;;;20.30;99.90;;;;;;5070322;28;20068;-68
2023/05/21 08:21:42;;;;;;;7.35;2.95;;;20.30;99.90;;;;;;5070410;28;20450;-68
2023/05/21 08:24:09;;;;;;;7.05;3.13;;;20.40;99.90;;;;;;5053237;28;20056;-68
2023/05/21 08:26:36;;;;;;;5.88;3.22;;;20.50;99.90;;;;;;5052891;28;20041;-68
2023/05/21 08:29:03;;;;;;;10.32;2.78;;;20.60;99.90;;;;;;5053480;28;20786;-69
2023/05/21 08:31:30;;;;;;;5.80;3.10;;;20.90;99.90;;;;;;5053799;28;20064;-68
2023/05/21 08:33:58;;;;;;;5.88;2.78;;;20.80;99.90;;;;;;5053352;28;20080;-67
2023/05/21 08:36:25;;;;;;;8.98;2.97;;;21.10;99.90;;;;;;5050276;28;20037;-69
2023/05/21 08:38:52;;;;;;;5.28;3.08;;;21.20;99.90;;;;;;5071897;28;20080;-69
2023/05/21 08:41:22;;;;;;;5.28;2.53;;;21.30;99.90;;;;;;5052291;28;20056;-68
2023/05/21 08:43:53;;;;;;;9.93;3.35;;;21.50;99.90;;;;;;5053604;28;20135;-68
2023/05/21 08:46:23;;;;;;;5.25;2.90;;;21.70;99.90;;;;;;5050173;28;20044;-68
2023/05/21 08:48:53;;;;;;;7.88;3.05;;;21.70;99.90;;;;;;5070752;28;20130;-67
2023/05/21 08:51:22;;;;;;;7.43;3.05;;;21.70;99.90;;;;;;5052044;28;20087;-68
2023/05/21 08:53:51;;;;;;;8.68;2.88;;;21.60;99.90;;;;;;5071753;28;20052;-68
2023/05/21 08:56:18;;;;;;;5.60;2.90;;;21.60;99.90;;;;;;5047905;28;20056;-66
2023/05/21 08:58:46;;;;;;;9.48;3.20;;;22.00;99.90;;;;;;5069089;28;20052;-69
2023/05/21 09:01:13;;;;;;;7.90;2.90;;;22.50;99.90;;;;;;5051634;28;20052;-67
2023/05/21 09:03:42;;;;;;;5.72;2.97;;;22.90;99.90;;;;;;5051521;28;20404;-67
2023/05/21 09:06:12;;;;;;;6.53;2.80;;;23.10;99.90;;;;;;5052070;28;20056;-68
2023/05/21 09:08:44;;;;;;;6.95;2.85;;;23.60;99.90;;;;;;5067687;28;20109;-68
2023/05/21 09:11:12;;;;;;;10.10;3.30;;;23.70;99.60;;;;;;5069769;28;20044;-69
2023/05/21 09:13:40;;;;;;;5.38;3.03;;;23.70;99.90;;;;;;5069514;28;20052;-69
2023/05/21 09:16:08;;;;;;;6.57;2.97;;;23.50;99.70;;;;;;5053056;28;20056;-69
2023/05/21 09:18:34;;;;;;;6.97;3.05;;;23.30;99.90;;;;;;5070078;28;20059;-69
2023/05/21 09:21:23;;;;;;;4.70;2.65;;;23.30;99.60;;;;;;5071304;28;20503;-70
2023/05/21 09:23:55;;;;;;;5.25;2.60;;;23.30;99.20;;;;;;5050770;28;20110;-69
2023/05/21 09:26:23;;;;;;;6.05;2.70;;;23.30;99.60;;;;;;5048881;28;20516;-69
2023/05/21 09:28:51;;;;;;;6.93;2.78;;;23.30;99.90;;;;;;5055798;28;20059;-69
2023/05/21 09:31:18;;;;;;;10.30;2.72;;;23.30;99.70;;;;;;5073780;28;20127;-69
2023/05/21 09:33:48;;;;;;;5.53;3.00;;;23.20;99.70;;;;;;5054702;28;20056;-68
2023/05/21 09:36:15;;;;;;;6.10;2.75;;;23.40;99.70;;;;;;5054806;28;20102;-68
2023/05/21 09:38:42;;;;;;;6.70;2.83;;;23.50;99.50;;;;;;5073589;28;20516;-69
2023/05/21 09:41:10;;;;;;;5.97;2.50;;;23.90;99.30;;;;;;5052388;28;20056;-69
2023/05/21 09:43:37;;;;;;;6.55;2.78;;;24.20;98.60;;;;;;5072755;28;20044;-69
2023/05/21 09:46:04;;;;;;;5.47;2.70;;;24.50;98.30;;;;;;5055461;28;20044;-68
2023/05/21 09:48:36;;;;;;;6.10;2.90;;;24.40;98.10;;;;;;5056505;28;20122;-69
2023/05/21 09:51:13;;;;;;;6.45;3.00;;;24.40;97.70;;;;;;5069521;28;20056;-70
2023/05/21 09:53:44;;;;;;;5.60;2.80;;;24.60;97.60;;;;;;5074632;28;20056;-70
2023/05/21 09:56:12;;;;;;;3.80;2.60;;;24.70;97.30;;;;;;5072104;28;20048;-69
2023/05/21 09:58:39;;;;;;;5.80;2.63;;;24.60;97.00;;;;;;5071922;28;20423;-70
2023/05/21 10:01:07;;;;;;;5.65;2.80;;;24.40;97.30;;;;;;5052649;28;20122;-68
2023/05/21 10:03:39;;;;;;;6.88;3.17;;;24.70;97.10;;;;;;5070633;28;20045;-69
2023/05/21 10:06:09;;;;;;;6.13;2.72;;;25.00;96.60;;;;;;5054596;28;20061;-68
2023/05/21 10:08:36;;;;;;;7.57;2.60;;;25.20;96.80;;;;;;5054175;28;20186;-68
2023/05/21 10:11:05;;;;;;;5.35;2.85;;;25.00;96.90;;;;;;5055619;28;20094;-68
2023/05/21 10:13:39;;;;;;;8.38;3.03;;;25.20;96.70;;;;;;5072583;28;20098;-68
2023/05/21 10:16:06;;;;;;;8.00;3.10;;;25.10;96.00;;;;;;5073096;28;20439;-69
2023/05/21 10:18:34;;;;;;;8.13;3.00;;;24.80;96.50;;;;;;5072615;28;20056;-67
2023/05/21 10:21:01;;;;;;;5.75;3.30;;;24.80;96.80;;;;;;5073874;28;20131;-68
2023/05/21 10:23:29;;;;;;;4.85;2.90;;;25.00;96.50;;;;;;5054975;28;20071;-68
2023/05/21 10:25:58;;;;;;;10.63;2.90;;;25.00;96.50;;;;;;5053056;28;20045;-68
2023/05/21 10:28:25;;;;;;;5.80;2.80;;;25.10;96.50;;;;;;5069611;28;20048;-68
2023/05/21 10:30:54;;;;;;;4.85;2.63;;;25.40;96.30;;;;;;5072335;28;20044;-68
2023/05/21 10:33:23;;;;;;;4.93;2.78;;;25.60;95.60;;;;;;5051773;28;20048;-68
2023/05/21 10:35:51;;;;;;;6.50;2.53;;;25.60;95.90;;;;;;5072423;28;20055;-68
2023/05/21 10:38:19;;;;;;;5.40;2.50;;;25.30;95.80;;;;;;5053916;28;20052;-67
2023/05/21 10:40:47;;;;;;;4.38;2.70;;;25.40;95.90;;;;;;5052757;28;20063;-68
2023/05/21 10:43:50;;;;;;;5.30;2.63;;;25.50;95.80;;;;;;5052180;28;20056;-68
2023/05/21 10:46:45;;;;;;;4.13;2.60;;;25.90;94.80;;;;;;5064406;28;20059;-68
2023/05/21 10:49:38;;;;;;;3.83;2.63;;;26.20;94.70;;;;;;5052336;28;20060;-67
2023/05/21 10:52:17;;;;;;;4.40;2.22;;;26.10;93.90;;;;;;5070020;28;20136;-68
2023/05/21 10:55:05;;;;;;;6.03;2.38;;;26.30;94.30;;;;;;5053333;28;20450;-67
2023/05/21 10:57:51;;;;;;;8.90;3.05;;;26.80;93.90;;;;;;5051447;28;20052;-67
2023/05/21 11:00:19;;;;;;;6.70;2.83;;;27.00;94.20;;;;;;5052664;28;20049;-68
2023/05/21 11:02:50;;;;;;;6.57;3.22;;;27.10;93.90;;;;;;5053632;28;20052;-68
2023/05/21 11:05:34;;;;;;;10.68;2.60;;;27.30;93.30;;;;;;5052510;28;20407;-68
2023/05/21 11:08:01;;;;;;;9.00;2.63;;;27.10;93.70;;;;;;5051620;28;20491;-68
2023/05/21 11:10:37;;;;;;;6.85;2.50;;;26.40;93.70;;;;;;5051766;28;20051;-68
2023/05/21 11:13:15;;;;;;;5.45;2.75;;;26.10;93.30;;;;;;5070520;28;20044;-69
2023/05/21 11:16:07;;;;;;;4.70;2.85;;;26.10;93.60;;;;;;5069270;28;20127;-69
2023/05/21 11:19:03;;;;;;;5.20;2.70;;;26.50;93.60;;;;;;5053432;28;20049;-69
2023/05/21 11:21:31;;;;;;;7.30;2.42;;;26.80;93.60;;;;;;5053688;28;20052;-68
2023/05/21 11:24:03;;;;;;;5.90;2.88;;;27.00;93.70;;;;;;5052466;28;20118;-68
2023/05/21 11:26:51;;;;;;;6.93;3.28;;;27.00;93.60;;;;;;5055201;28;20052;-68
2023/05/21 11:29:19;;;;;;;6.88;3.13;;;26.90;93.40;;;;;;5069449;28;20087;-68
2023/05/21 11:31:47;;;;;;;4.50;2.55;;;27.00;93.30;;;;;;5054308;28;20080;-70
2023/05/21 11:34:20;;;;;;;7.93;2.75;;;27.20;93.40;;;;;;5069975;28;20048;-72
2023/05/21 11:36:49;;;;;;;7.75;3.20;;;27.50;93.30;;;;;;5054588;28;20044;-73
2023/05/21 11:39:20;;;;;;;12.13;3.42;;;27.50;93.10;;;;;;5053238;28;20067;-74
2023/05/21 11:41:58;;;;;;;6.78;3.28;;;27.50;93.30;;;;;;5052972;28;20055;-74
2023/05/21 11:44:47;;;;;;;6.53;2.92;;;27.50;93.10;;;;;;5053958;28;20384;-73
2023/05/21 11:47:15;;;;;;;8.40;3.50;;;27.70;92.80;;;;;;5046199;28;20048;-73
2023/05/21 11:49:44;;;;;;;7.32;3.28;;;28.00;93.10;;;;;;5071408;28;20496;-73
2023/05/21 11:52:12;;;;;;;8.95;3.50;;;28.10;92.60;;;;;;5050823;28;20389;-73
2023/05/21 11:54:40;;;;;;;11.30;3.55;;;28.00;92.60;;;;;;5054359;28;20562;-73
2023/05/21 11:57:08;;;;;;;6.47;3.40;;;28.20;92.40;;;;;;5050635;28;20439;-73
2023/05/21 11:59:36;;;;;;;5.10;3.05;;;28.00;92.40;;;;;;5050367;28;20122;-73
2023/05/21 12:02:03;;;;;;;5.93;3.25;;;28.20;92.60;;;;;;5049984;28;20040;-73
2023/05/21 12:04:30;;;;;;;6.10;3.30;;;28.00;92.70;;;;;;5070920;28;20136;-73
2023/05/21 12:06:59;;;;;;;6.82;3.47;;;28.10;92.50;;;;;;5052179;28;20049;-73
2023/05/21 12:09:26;;;;;;;7.70;3.77;;;27.90;92.60;;;;;;5051758;28;20374;-74
2023/05/21 12:11:53;;;;;;;6.22;3.33;;;27.70;92.60;;;;;;5052350;28;20102;-73
2023/05/21 12:14:22;;;;;;;7.57;3.45;;;27.80;92.80;;;;;;5051090;28;20052;-74
2023/05/21 12:16:48;;;;;;;6.10;3.58;;;27.60;92.40;;;;;;5067528;28;20076;-73
2023/05/21 12:19:18;;;;;;;6.75;3.80;;;27.40;92.50;;;;;;5052476;28;20106;-73
2023/05/21 12:21:45;;;;;;;6.53;3.30;;;27.20;92.60;;;;;;5051946;28;20048;-74
2023/05/21 12:24:15;;;;;;;8.18;3.75;;;27.20;92.80;;;;;;5070157;28;20463;-74
2023/05/21 12:26:44;;;;;;;8.15;4.03;;;27.20;92.90;;;;;;5052673;28;20045;-73
2023/05/21 12:29:12;;;;;;;10.25;4.50;;;27.40;92.80;;;;;;5052014;28;20060;-73
2023/05/21 12:31:48;;;;;;;6.95;4.20;;;27.40;93.00;;;;;;5051621;28;20048;-74
2023/05/21 12:34:17;;;;;;;6.75;4.55;;;27.30;92.90;;;;;;5050695;28;20048;-73
2023/05/21 12:36:48;;;;;;;7.10;4.47;;;27.30;93.00;;;;;;5071382;28;20040;-74
2023/05/21 12:39:16;;;;;;;6.60;4.88;;;27.30;92.90;;;;;;5053051;28;20129;-74
2023/05/21 12:41:43;;;;;;;10.48;4.78;;;27.20;93.30;;;;;;5052537;28;20498;-74
2023/05/21 12:44:11;;;;;;;8.88;5.38;;;27.10;93.20;;;;;;5054515;28;20052;-74
2023/05/21 12:46:38;;;;;;;9.90;5.57;;;27.00;93.10;;;;;;5053710;28;20098;-74
2023/05/21 12:49:05;;;;;;;7.97;5.28;;;26.90;93.40;;;;;;5071918;28;20394;-74
2023/05/21 12:51:38;;;;;;;6.43;4.63;;;27.20;93.70;;;;;;5052267;28;20052;-73
2023/05/21 12:54:12;;;;;;;8.85;5.65;;;27.40;93.60;;;;;;5051968;28;20087;-74